createdAt,value
2023-02-17T00:04:56.512Z,0.79
2023-02-17T00:10:01.902Z,0.83
2023-02-17T00:15:07.326Z,0.79
2023-02-17T00:20:18.210Z,0.74
2023-02-17T00:25:22.297Z,0.67
2023-02-17T00:30:26.680Z,0.64
2023-02-17T00:35:32.371Z,0.65
2023-02-17T00:40:46.483Z,0.68
2023-02-17T00:45:50.528Z,0.71
2023-02-17T00:50:57.461Z,0.76
2023-02-17T00:56:01.732Z,0.79
2023-02-17T01:01:06.106Z,0.86
2023-02-17T01:06:21.537Z,0.93
2023-02-17T01:11:27.452Z,0.97
2023-02-17T01:16:34.607Z,1.03
2023-02-17T01:21:38.141Z,1.10
2023-02-17T01:26:41.761Z,1.16
2023-02-17T01:31:45.335Z,1.23
2023-02-17T01:36:48.873Z,1.31
2023-02-17T01:41:52.328Z,1.37
2023-02-17T01:46:57.265Z,1.43
2023-02-17T01:52:08.105Z,1.48
2023-02-17T01:57:15.331Z,1.56
2023-02-17T02:02:19.048Z,1.62
2023-02-17T02:07:27.202Z,1.65
2023-02-17T02:12:33.165Z,1.70
2023-02-17T02:17:49.479Z,1.74
2023-02-17T02:23:15.793Z,1.79
2023-02-17T02:28:37.477Z,1.84
2023-02-17T02:33:44.335Z,1.88
2023-02-17T02:38:53.542Z,1.91
2023-02-17T02:43:57.044Z,1.92
2023-02-17T02:49:01.590Z,1.94
2023-02-17T02:54:19.223Z,1.97
2023-02-17T02:59:38.647Z,1.99
2023-02-17T03:04:50.449Z,2.01
2023-02-17T03:09:54.786Z,2.06
2023-02-17T03:15:02.749Z,2.09
2023-02-17T03:20:08.951Z,2.14
2023-02-17T03:25:12.671Z,2.18
2023-02-17T03:30:16.373Z,2.21
2023-02-17T03:35:20.106Z,2.25
2023-02-17T03:40:23.674Z,2.29
2023-02-17T03:45:27.364Z,2.32
2023-02-17T03:50:31.413Z,2.34
2023-02-17T03:55:35.024Z,2.38
2023-02-17T04:00:38.535Z,2.40
2023-02-17T04:05:45.010Z,2.43
2023-02-17T04:10:52.451Z,2.42
2023-02-17T04:15:56.625Z,2.40
2023-02-17T04:21:00.562Z,2.39
2023-02-17T04:26:05.780Z,2.40
2023-02-17T04:31:09.916Z,2.40
2023-02-17T04:36:13.699Z,2.37
2023-02-17T04:41:17.275Z,2.36
2023-02-17T04:46:20.778Z,2.38
2023-02-17T04:51:24.464Z,2.33
2023-02-17T04:56:28.124Z,2.32
2023-02-17T05:01:31.832Z,2.28
2023-02-17T05:06:35.302Z,2.26
2023-02-17T05:11:38.847Z,2.28
2023-02-17T05:16:42.627Z,2.28
2023-02-17T05:21:46.271Z,2.28
2023-02-17T05:26:49.727Z,2.26
2023-02-17T05:31:53.300Z,2.28
2023-02-17T05:36:56.861Z,2.31
2023-02-17T05:42:00.220Z,2.44
2023-02-17T05:47:03.873Z,2.67
2023-02-17T05:52:07.376Z,2.78
2023-02-17T05:57:11.183Z,2.88
2023-02-17T06:02:14.852Z,2.96
2023-02-17T06:07:18.285Z,3.04
2023-02-17T06:12:21.918Z,3.14
2023-02-17T06:17:26.099Z,3.28
2023-02-17T06:22:29.577Z,3.54
2023-02-17T06:27:33.118Z,3.80
2023-02-17T06:32:36.682Z,4.06
2023-02-17T06:37:40.345Z,4.21
2023-02-17T06:42:44.044Z,4.26
2023-02-17T06:47:47.704Z,4.29
2023-02-17T06:52:51.310Z,4.31
2023-02-17T06:57:54.639Z,4.33
2023-02-17T07:02:58.353Z,4.39
2023-02-17T07:08:01.888Z,4.47
2023-02-17T07:13:05.311Z,4.62
2023-02-17T07:18:08.893Z,4.77
2023-02-17T07:23:12.320Z,4.89
2023-02-17T07:28:15.820Z,5.00
2023-02-17T07:33:19.472Z,5.08
2023-02-17T07:38:23.025Z,5.16
2023-02-17T07:43:26.479Z,5.27
2023-02-17T07:48:30.378Z,5.37
2023-02-17T07:53:34.671Z,5.48
2023-02-17T07:58:41.158Z,5.60
2023-02-17T08:03:48.620Z,5.74
2023-02-17T08:09:11.313Z,5.89
2023-02-17T08:14:15.537Z,6.05
2023-02-17T08:19:19.507Z,6.22
2023-02-17T08:24:24.247Z,6.35
2023-02-17T08:29:28.063Z,6.44
2023-02-17T08:34:33.078Z,6.56
2023-02-17T08:39:37.660Z,6.70
2023-02-17T08:44:41.285Z,6.84
2023-02-17T08:49:45.529Z,6.95
2023-02-17T08:54:51.573Z,7.03
2023-02-17T08:59:55.745Z,7.11
2023-02-17T09:05:00.800Z,7.21
2023-02-17T09:10:05.895Z,7.31
2023-02-17T09:15:10.106Z,7.40
2023-02-17T09:20:24.545Z,7.49
2023-02-17T09:25:29.388Z,7.57
2023-02-17T09:30:33.645Z,7.62
2023-02-17T09:35:38.491Z,7.66
2023-02-17T09:40:46.761Z,7.70
2023-02-17T09:45:53.925Z,7.75
2023-02-17T09:51:00.591Z,7.81
2023-02-17T09:56:09.711Z,7.86
2023-02-17T10:01:19.340Z,7.90
2023-02-17T10:06:26.638Z,7.95
2023-02-17T10:11:35.656Z,8.00
2023-02-17T10:16:49.841Z,8.04
2023-02-17T10:22:13.679Z,8.10
2023-02-17T10:27:35.744Z,8.17
2023-02-17T10:32:51.099Z,8.25
2023-02-17T10:38:02.863Z,8.32
2023-02-17T10:43:15.494Z,8.40
2023-02-17T10:48:23.696Z,8.46
2023-02-17T10:53:31.048Z,8.55
2023-02-17T10:58:47.243Z,8.65
2023-02-17T11:04:01.348Z,8.73
2023-02-17T11:09:16.686Z,8.82
2023-02-17T11:14:26.092Z,8.91
2023-02-17T11:19:33.375Z,8.96
2023-02-17T11:24:38.195Z,9.02
2023-02-17T11:29:41.840Z,9.03
2023-02-17T11:34:56.674Z,9.05
2023-02-17T11:40:00.642Z,9.10
2023-02-17T11:45:17.320Z,9.18
2023-02-17T11:50:40.831Z,9.28
2023-02-17T11:55:54.689Z,9.35
2023-02-17T12:01:11.243Z,9.38
2023-02-17T12:06:21.180Z,9.45
2023-02-17T12:11:36.809Z,9.54
2023-02-17T12:16:50.041Z,9.69
2023-02-17T12:22:02.378Z,9.83
2023-02-17T12:27:13.026Z,9.92
2023-02-17T12:32:28.006Z,10.01
2023-02-17T12:37:34.988Z,10.04
2023-02-17T12:42:42.706Z,10.04
2023-02-17T12:47:54.681Z,10.03
2023-02-17T12:53:02.852Z,10.00
2023-02-17T12:58:13.899Z,9.96
2023-02-17T13:03:18.527Z,9.87
2023-02-17T13:08:25.549Z,9.78
2023-02-17T13:13:30.574Z,9.79
2023-02-17T13:18:36.364Z,9.80
2023-02-17T13:23:41.565Z,9.88
2023-02-17T13:28:52.578Z,9.86
2023-02-17T13:33:58.679Z,9.80
2023-02-17T13:39:07.670Z,9.68
2023-02-17T13:44:29.678Z,9.60
2023-02-17T13:49:34.723Z,9.55
2023-02-17T13:54:38.417Z,9.48
2023-02-17T13:59:41.946Z,9.43
2023-02-17T14:04:46.354Z,9.40
2023-02-17T14:09:54.787Z,9.35
2023-02-17T14:14:58.574Z,9.26
2023-02-17T14:20:02.271Z,9.18
2023-02-17T14:25:08.538Z,9.13
2023-02-17T14:30:15.579Z,9.06
2023-02-17T14:35:24.372Z,8.98
2023-02-17T14:40:28.342Z,8.93
2023-02-17T14:45:31.826Z,8.93
2023-02-17T14:50:41.689Z,8.95
2023-02-17T14:55:49.388Z,8.99
2023-02-17T15:00:52.963Z,9.01
2023-02-17T15:05:56.780Z,9.04
2023-02-17T15:11:01.221Z,9.08
2023-02-17T15:16:07.775Z,9.14
2023-02-17T15:21:24.028Z,9.19
2023-02-17T15:26:29.751Z,9.25
2023-02-17T15:31:35.826Z,9.28
2023-02-17T15:36:39.404Z,9.32
2023-02-17T15:41:44.129Z,9.35
2023-02-17T15:46:49.840Z,9.35
2023-02-17T15:51:53.560Z,9.36
2023-02-17T15:57:01.786Z,9.45
2023-02-17T16:02:24.695Z,9.53
2023-02-17T16:07:28.988Z,9.57
2023-02-17T16:12:33.501Z,9.57
2023-02-17T16:17:42.015Z,9.60
2023-02-17T16:22:49.903Z,9.55
2023-02-17T16:27:58.588Z,9.26
2023-02-17T16:33:02.511Z,8.84
2023-02-17T16:38:08.939Z,8.60
2023-02-17T16:43:17.932Z,8.48
2023-02-17T16:48:27.663Z,8.43
2023-02-17T16:53:31.588Z,8.40
2023-02-17T16:58:40.300Z,8.39
2023-02-17T17:03:46.760Z,8.40
2023-02-17T17:08:56.474Z,8.40
2023-02-17T17:14:04.417Z,8.40
2023-02-17T17:19:12.417Z,8.39
2023-02-17T17:24:18.592Z,8.32
2023-02-17T17:29:22.761Z,8.28
2023-02-17T17:34:29.001Z,8.27
2023-02-17T17:39:33.834Z,8.29
2023-02-17T17:44:41.086Z,8.36
2023-02-17T17:49:45.377Z,8.49
2023-02-17T17:54:51.777Z,8.85
2023-02-17T17:59:59.218Z,9.08
2023-02-17T18:05:03.558Z,9.53
2023-02-17T18:10:10.891Z,10.15
2023-02-17T18:15:15.764Z,10.82
2023-02-17T18:20:22.171Z,11.06
2023-02-17T18:25:26.526Z,11.20
2023-02-17T18:30:31.419Z,11.40
2023-02-17T18:35:38.898Z,11.56
2023-02-17T18:41:11.656Z,11.74
2023-02-17T18:46:21.994Z,11.91
2023-02-17T18:51:34.117Z,12.04
2023-02-17T18:56:38.606Z,12.21
2023-02-17T19:01:42.675Z,12.36
2023-02-17T19:06:46.454Z,12.40
2023-02-17T19:11:50.090Z,12.42
2023-02-17T19:16:53.520Z,12.41
2023-02-17T19:21:57.139Z,12.41
2023-02-17T19:27:01.185Z,12.47
2023-02-17T19:32:13.747Z,12.57
2023-02-17T19:37:25.482Z,12.54
2023-02-17T19:42:34.102Z,12.53
2023-02-17T19:47:56.718Z,12.51
2023-02-17T19:53:01.020Z,12.31
2023-02-17T19:58:08.180Z,12.03
2023-02-17T20:03:22.164Z,11.97
2023-02-17T20:08:38.027Z,11.91
2023-02-17T20:13:49.045Z,11.87
2023-02-17T20:19:09.905Z,11.88
2023-02-17T20:24:14.439Z,11.84
2023-02-17T20:29:23.583Z,11.79
2023-02-17T20:34:31.531Z,11.73
2023-02-17T20:39:37.562Z,11.67
2023-02-17T20:44:41.565Z,11.61
2023-02-17T20:49:45.316Z,11.54
2023-02-17T20:54:49.849Z,11.47
2023-02-17T20:59:56.291Z,11.34
2023-02-17T21:05:00.876Z,11.23
2023-02-17T21:10:05.022Z,11.12
2023-02-17T21:15:10.119Z,10.99
2023-02-17T21:20:17.921Z,10.92
2023-02-17T21:25:21.595Z,10.91
2023-02-17T21:30:25.117Z,10.91
2023-02-17T21:35:28.612Z,10.96
2023-02-17T21:40:32.274Z,10.97
2023-02-17T21:45:39.182Z,10.93
2023-02-17T21:50:44.167Z,10.91
2023-02-17T21:55:47.847Z,10.89
2023-02-17T22:00:52.823Z,10.93
2023-02-17T22:05:59.912Z,11.01
2023-02-17T22:11:06.533Z,11.02
2023-02-17T22:16:14.644Z,10.09
2023-02-17T22:21:18.861Z,9.24
2023-02-17T22:26:27.853Z,8.63
2023-02-17T22:31:38.311Z,8.16
2023-02-17T22:36:49.478Z,7.91
2023-02-17T22:41:53.942Z,7.68
2023-02-17T22:47:01.264Z,7.52
2023-02-17T22:52:07.931Z,7.37
2023-02-17T22:57:14.795Z,7.23
2023-02-17T23:02:22.467Z,7.13
2023-02-17T23:07:30.403Z,7.07
2023-02-17T23:12:40.062Z,7.03
2023-02-17T23:18:00.355Z,7.04
2023-02-17T23:23:07.185Z,6.94
2023-02-17T23:28:19.339Z,6.95
2023-02-17T23:33:35.785Z,7.17
2023-02-17T23:38:45.667Z,7.30
2023-02-17T23:43:51.287Z,7.48
2023-02-17T23:48:56.873Z,7.56
2023-02-17T23:54:01.124Z,7.58
2023-02-17T23:59:22.106Z,7.59
